Justice — WDG2184 — position and weather

sailwx.info

Track history (hours):
 
Tides and Currents Weather Stations Pressure Air Temp Water Temp Dewpoint Dewpoint Depression Visibility Wind Speed Wind Dir Waves Ship Positions

Justice

More information available from US FCC via Universal Licensing System and Coast Guard Vessel Documentation Center.

Last reported at 2014-Aug-30 14:24 UTC. Time now 2014-Aug-30 20:37 UTC.
Position N 42°23' W 071°03'.

Length 30 m; draft 5.8 m.

Type: Tug. MMSI: 367513010.

Date/timePositionNaut miles runAvg speedWind from/ knotsBaromVisibWave heightAir tempDewpointWater temp
2014-Aug-30 14:24N 42°23' W 071°03'1 0.4
2014-Aug-30 12:33N 42°23' W 071°02'1 1.2
2014-Aug-30 11:33N 42°22' W 071°03'3 3.0
2014-Aug-30 10:33N 42°20' W 070°60'5 0.1
2014-Aug-28 12:27N 42°15' W 070°57'4 4.1
2014-Aug-28 11:31N 42°19' W 070°56'5 4.5
2014-Aug-28 10:27N 42°21' W 071°02'2 0.5
2014-Aug-28 06:33N 42°20' W 070°59'4 0.2
2014-Aug-27 13:06N 42°23' W 071°03'3 4.7
2014-Aug-27 12:31N 42°20' W 071°01'5 2.6
2014-Aug-27 10:27N 42°16' W 070°56'4 4.0
2014-Aug-27 09:25N 42°20' W 070°58'4 4.6
2014-Aug-27 08:29N 42°23' W 071°03'0 0.0
2014-Aug-27 06:23N 42°23' W 071°03'0 0.0
2014-Aug-27 05:33N 42°23' W 071°03'0 0.0
2014-Aug-26 16:21N 42°23' W 071°03'8 8.4
2014-Aug-26 15:22N 42°16' W 070°56'1 0.3
2014-Aug-26 12:33N 42°15' W 070°57'9 3.8
2014-Aug-26 10:15N 42°23' W 071°03'0 0.3
2014-Aug-26 09:28N 42°23' W 071°03'0 0.1
2014-Aug-26 06:14N 42°23' W 071°03'1 2.1
2014-Aug-26 05:33N 42°24' W 071°01'2 1.8
2014-Aug-26 04:33N 42°22' W 071°03'0 0.4
2014-Aug-26 03:32N 42°23' W 071°03'0 0.0
2014-Aug-26 02:30N 42°23' W 071°03'0 0.3
2014-Aug-26 01:25N 42°23' W 071°02'2 0.1
2014-Aug-25 09:06N 42°21' W 071°02'3 0.4
2014-Aug-25 02:33N 42°20' W 070°58'0 0.4
2014-Aug-25 01:29N 42°20' W 070°59'2 0.1
2014-Aug-24 04:21N 42°21' W 071°01'3 2.3
2014-Aug-24 03:10N 42°23' W 071°02'1 1.4
2014-Aug-24 02:13N 42°24' W 071°01'0 0.6
2014-Aug-24 01:32N 42°23' W 071°01'0 0.0
2014-Aug-24 00:33N 42°23' W 071°01'0 0.0
2014-Aug-23 23:26N 42°23' W 071°01'0 0.0
2014-Aug-23 22:29N 42°23' W 071°01'4 0.2
2014-Aug-23 02:24N 42°20' W 070°59'0 0.0
2014-Aug-23 01:27N 42°20' W 070°59'0 0.0
2014-Aug-23 00:33N 42°20' W 070°59'3 0.2
2014-Aug-22 13:28N 42°21' W 071°02'3 3.4
2014-Aug-22 12:31N 42°21' W 070°58'1 1.0
2014-Aug-22 11:28N 42°20' W 070°59'2 1.8
2014-Aug-22 10:28N 42°21' W 071°01'3 0.5
2014-Aug-22 05:33N 42°23' W 071°03'0 0.2
2014-Aug-22 04:33N 42°23' W 071°03'0 0.2
2014-Aug-22 03:22N 42°23' W 071°02'3 0.2
2014-Aug-21 13:33N 42°21' W 071°01'0 0.2
2014-Aug-21 12:33N 42°21' W 071°01'0 0.3
2014-Aug-21 11:34N 42°21' W 071°01'1 0.6
2014-Aug-21 10:33N 42°21' W 071°02'2 1.8
2014-Aug-21 09:33N 42°23' W 071°03'0 0.0
2014-Aug-21 08:33N 42°23' W 071°03'0 0.0
2014-Aug-21 07:33N 42°23' W 071°03'0 0.0
2014-Aug-21 06:33N 42°23' W 071°03'0 0.0
2014-Aug-21 05:31N 42°23' W 071°03'0 0.0
2014-Aug-21 04:33N 42°23' W 071°03'0 0.0
2014-Aug-21 03:33N 42°23' W 071°03'0 0.0
2014-Aug-21 02:34N 42°23' W 071°03'0 0.0
2014-Aug-21 01:31N 42°23' W 071°03'3 0.6
2014-Aug-20 20:24N 42°20' W 071°00'  
Track history (hours):
 
Tides and Currents Weather Stations Pressure Air Temp Water Temp Dewpoint Dewpoint Depression Visibility Wind Speed Wind Dir Waves Ship Positions

Justice

More information available from US FCC via Universal Licensing System and Coast Guard Vessel Documentation Center.

Last reported at 2014-Aug-30 14:24 UTC. Time now 2014-Aug-30 20:37 UTC.
Position N 42°23' W 071°03'.

Length 30 m; draft 5.8 m.

Type: Tug. MMSI: 367513010.

Date/timePositionNaut miles runAvg speedWind from/ knotsBaromVisibWave heightAir tempDewpointWater temp
2014-Aug-30 14:24N 42°23' W 071°03'1 0.4
2014-Aug-30 12:33N 42°23' W 071°02'1 1.2
2014-Aug-30 11:33N 42°22' W 071°03'3 3.0
2014-Aug-30 10:33N 42°20' W 070°60'5 0.1
2014-Aug-28 12:27N 42°15' W 070°57'4 4.1
2014-Aug-28 11:31N 42°19' W 070°56'5 4.5
2014-Aug-28 10:27N 42°21' W 071°02'2 0.5
2014-Aug-28 06:33N 42°20' W 070°59'4 0.2
2014-Aug-27 13:06N 42°23' W 071°03'3 4.7
2014-Aug-27 12:31N 42°20' W 071°01'5 2.6
2014-Aug-27 10:27N 42°16' W 070°56'4 4.0
2014-Aug-27 09:25N 42°20' W 070°58'4 4.6
2014-Aug-27 08:29N 42°23' W 071°03'0 0.0
2014-Aug-27 06:23N 42°23' W 071°03'0 0.0
2014-Aug-27 05:33N 42°23' W 071°03'0 0.0
2014-Aug-26 16:21N 42°23' W 071°03'8 8.4
2014-Aug-26 15:22N 42°16' W 070°56'1 0.3
2014-Aug-26 12:33N 42°15' W 070°57'9 3.8
2014-Aug-26 10:15N 42°23' W 071°03'0 0.3
2014-Aug-26 09:28N 42°23' W 071°03'0 0.1
2014-Aug-26 06:14N 42°23' W 071°03'1 2.1
2014-Aug-26 05:33N 42°24' W 071°01'2 1.8
2014-Aug-26 04:33N 42°22' W 071°03'0 0.4
2014-Aug-26 03:32N 42°23' W 071°03'0 0.0
2014-Aug-26 02:30N 42°23' W 071°03'0 0.3
2014-Aug-26 01:25N 42°23' W 071°02'2 0.1
2014-Aug-25 09:06N 42°21' W 071°02'3 0.4
2014-Aug-25 02:33N 42°20' W 070°58'0 0.4
2014-Aug-25 01:29N 42°20' W 070°59'2 0.1
2014-Aug-24 04:21N 42°21' W 071°01'3 2.3
2014-Aug-24 03:10N 42°23' W 071°02'1 1.4
2014-Aug-24 02:13N 42°24' W 071°01'0 0.6
2014-Aug-24 01:32N 42°23' W 071°01'0 0.0
2014-Aug-24 00:33N 42°23' W 071°01'0 0.0
2014-Aug-23 23:26N 42°23' W 071°01'0 0.0
2014-Aug-23 22:29N 42°23' W 071°01'4 0.2
2014-Aug-23 02:24N 42°20' W 070°59'0 0.0
2014-Aug-23 01:27N 42°20' W 070°59'0 0.0
2014-Aug-23 00:33N 42°20' W 070°59'3 0.2
2014-Aug-22 13:28N 42°21' W 071°02'3 3.4
2014-Aug-22 12:31N 42°21' W 070°58'1 1.0
2014-Aug-22 11:28N 42°20' W 070°59'2 1.8
2014-Aug-22 10:28N 42°21' W 071°01'3 0.5
2014-Aug-22 05:33N 42°23' W 071°03'0 0.2
2014-Aug-22 04:33N 42°23' W 071°03'0 0.2
2014-Aug-22 03:22N 42°23' W 071°02'3 0.2
2014-Aug-21 13:33N 42°21' W 071°01'0 0.2
2014-Aug-21 12:33N 42°21' W 071°01'0 0.3
2014-Aug-21 11:34N 42°21' W 071°01'1 0.6
2014-Aug-21 10:33N 42°21' W 071°02'2 1.8
2014-Aug-21 09:33N 42°23' W 071°03'0 0.0
2014-Aug-21 08:33N 42°23' W 071°03'0 0.0
2014-Aug-21 07:33N 42°23' W 071°03'0 0.0
2014-Aug-21 06:33N 42°23' W 071°03'0 0.0
2014-Aug-21 05:31N 42°23' W 071°03'0 0.0
2014-Aug-21 04:33N 42°23' W 071°03'0 0.0
2014-Aug-21 03:33N 42°23' W 071°03'0 0.0
2014-Aug-21 02:34N 42°23' W 071°03'0 0.0
2014-Aug-21 01:31N 42°23' W 071°03'3 0.6
2014-Aug-20 20:24N 42°20' W 071°00'  

Dump ship's entire track history